Albertville, AL

5:54 PM CST on November 21, 2017 (GMT -0600)
Albertville

Weather History for K8A0 - October, 2012

Change the Weather History Date:

Thursday, October 4, 2012

  Actual Average (KGAD) Record (KGAD)
Temperature  
Mean Temperature 65 °F -  
Max Temperature 77 °F 75 °F 92 °F (1931)
Min Temperature 53 °F 52 °F 39 °F (2010)
Growing Degree Days 15 (Base 50)    
Moisture  
Dew Point 56 °F    
Average Humidity 79    
Maximum Humidity 100    
Minimum Humidity 41    
Precipitation  
Precipitation 0.00 in - - ()
Sea Level Pressure  
Sea Level Pressure 30.24 in    
Wind  
Wind Speed 2 mph (East)    
Max Wind Speed 7 mph    
Max Gust Speed -    
Visibility 9 miles    
Events      
Averages and records for this station are not official NWS values.
T = Trace of Precipitation, MM = Missing Value Source: NWS Daily Summary

Daily Weather History Graph

Daily Weather History Graph

Search for Another Location

Airport or City:

Trip Planner

Search our weather history database for the weather conditions in past years. The results will help you decide how hot, cold, wet, or windy it might be!

Date:

Astronomy

Oct. 04, 2012 Rise Set
Actual Time 6:42 AM CDT 6:24 PM CDT
Civil Twilight 6:17 AM CDT 6:49 PM CDT
Nautical Twilight 5:48 AM CDT 7:18 PM CDT
Astronomical Twilight 5:18 AM CDT 7:47 PM CDT
Moon 9:11 PM CDT (10/4) 10:47 AM CDT (10/4)
Length of Visible Light 12h 32m
Length of Day
11h 42m
Waning Gibbous, 82% of the Moon is Illuminated
Oct 4
Waning Gibbous
Oct 8
Last Quarter
Oct 15
New
Oct 21
First Quarter
Oct 29
Full

Hourly Weather History & Observations

Time (CDT) Temp. Dew Point Humidity Pressure Visibility Wind Dir Wind Speed Gust Speed Precip Events Conditions
12:15 AM 60.8 °F 55.4 °F 82% 30.20 in 10.0 mi SE 4.6 mph - N/A   Unknown
12:35 AM 60.8 °F 55.4 °F 82% 30.20 in 10.0 mi SE 3.5 mph - N/A   Unknown
12:55 AM 59.0 °F 55.4 °F 88% 30.20 in 10.0 mi SE 4.6 mph - N/A   Unknown
1:15 AM 57.2 °F 57.2 °F 100% 30.20 in 10.0 mi Calm Calm - N/A   Unknown
1:35 AM 55.4 °F 55.4 °F 100% 30.21 in 10.0 mi Calm Calm - N/A   Unknown
1:55 AM 55.4 °F 55.4 °F 100% 30.21 in 10.0 mi Calm Calm - N/A   Unknown
2:15 AM 55.4 °F 55.4 °F 100% 30.21 in 10.0 mi East 3.5 mph - N/A   Unknown
2:35 AM 55.4 °F 55.4 °F 100% 30.22 in 10.0 mi Calm Calm - N/A   Unknown
2:55 AM 55.4 °F 55.4 °F 100% 30.21 in 10.0 mi Calm Calm - N/A   Unknown
3:15 AM 53.6 °F 53.6 °F 100% 30.22 in 7.0 mi NE 4.6 mph - N/A   Unknown
3:35 AM 55.4 °F 55.4 °F 100% 30.22 in 7.0 mi East 3.5 mph - N/A   Unknown
3:55 AM 53.6 °F 53.6 °F 100% 30.23 in 7.0 mi East 3.5 mph - N/A   Unknown
4:15 AM 53.6 °F 53.6 °F 100% 30.23 in 7.0 mi East 4.6 mph - N/A   Unknown
4:35 AM 53.6 °F 53.6 °F 100% 30.23 in 7.0 mi East 4.6 mph - N/A   Unknown
4:55 AM 53.6 °F 53.6 °F 100% 30.24 in 7.0 mi East 3.5 mph - N/A   Unknown
5:15 AM 53.6 °F 53.6 °F 100% 30.25 in 7.0 mi Calm Calm - N/A   Unknown
5:35 AM 53.6 °F 53.6 °F 100% 30.25 in 7.0 mi Calm Calm - N/A   Unknown
5:55 AM 53.6 °F 53.6 °F 100% 30.26 in 7.0 mi Calm Calm - N/A   Unknown
6:15 AM 53.6 °F 53.6 °F 100% 30.27 in 7.0 mi Calm Calm - N/A   Unknown
6:35 AM 53.6 °F 53.6 °F 100% 30.27 in 7.0 mi Calm Calm - N/A   Unknown
6:55 AM 53.6 °F 53.6 °F 100% 30.27 in 5.0 mi Calm Calm - N/A   Mist
7:15 AM 53.6 °F 53.6 °F 100% 30.27 in 7.0 mi ENE 3.5 mph - N/A   Unknown
7:35 AM 55.4 °F 55.4 °F 100% 30.28 in 7.0 mi East 3.5 mph - N/A   Unknown
7:55 AM 55.4 °F 55.4 °F 100% 30.28 in 7.0 mi Calm Calm - N/A   Unknown
8:15 AM 59.0 °F 59.0 °F 100% 30.29 in 10.0 mi Calm Calm - N/A   Unknown
8:35 AM 62.6 °F 62.6 °F 100% 30.29 in 10.0 mi Calm Calm - N/A   Unknown
8:55 AM 64.4 °F 62.6 °F 94% 30.29 in 10.0 mi Calm Calm - N/A   Unknown
9:15 AM 64.4 °F 64.4 °F 100% 30.29 in 10.0 mi Calm Calm - N/A   Unknown
9:35 AM 68.0 °F 59.0 °F 73% 30.30 in 10.0 mi Calm Calm - N/A   Unknown
9:55 AM 69.8 °F 57.2 °F 64% 30.30 in 10.0 mi Calm Calm - N/A   Unknown
10:15 AM 69.8 °F 55.4 °F 60% 30.30 in 10.0 mi Calm Calm - N/A   Unknown
10:35 AM 71.6 °F 55.4 °F 57% 30.30 in 10.0 mi Calm Calm - N/A   Unknown
10:55 AM 73.4 °F 55.4 °F 53% 30.30 in 10.0 mi West 3.5 mph - N/A   Unknown
11:15 AM 73.4 °F 55.4 °F 53% 30.29 in 10.0 mi West 3.5 mph - N/A   Unknown
11:35 AM 73.4 °F 55.4 °F 53% 30.29 in 10.0 mi Calm Calm - N/A   Unknown
11:55 AM 73.4 °F 55.4 °F 53% 30.29 in 10.0 mi NNE 4.6 mph - N/A   Unknown
12:15 PM 73.4 °F 53.6 °F 50% 30.28 in 10.0 mi Calm Calm - N/A   Unknown
12:35 PM 75.2 °F 57.2 °F 53% 30.27 in 10.0 mi North 6.9 mph - N/A   Unknown
12:55 PM 73.4 °F 53.6 °F 50% 30.27 in 10.0 mi NW 4.6 mph - N/A   Unknown
1:15 PM 77.0 °F 55.4 °F 47% 30.26 in 10.0 mi NNE 3.5 mph - N/A   Unknown
1:55 PM 77.0 °F 53.6 °F 44% 30.25 in 10.0 mi Calm Calm - N/A   Unknown
2:15 PM 77.0 °F 51.8 °F 41% 30.24 in 10.0 mi North 5.8 mph - N/A   Unknown
2:35 PM 77.0 °F 51.8 °F 41% 30.24 in 10.0 mi Calm Calm - N/A   Unknown
2:55 PM 77.0 °F 51.8 °F 41% 30.23 in 10.0 mi North 4.6 mph - N/A   Unknown
3:15 PM 77.0 °F 53.6 °F 44% 30.23 in 10.0 mi Calm Calm - N/A   Unknown
3:35 PM 77.0 °F 53.6 °F 44% 30.23 in 10.0 mi North 4.6 mph - N/A   Unknown
3:55 PM 77.0 °F 55.4 °F 47% 30.23 in 10.0 mi NNE 5.8 mph - N/A   Unknown
4:15 PM 77.0 °F 53.6 °F 44% 30.23 in 10.0 mi North 4.6 mph - N/A   Unknown
4:35 PM 77.0 °F 53.6 °F 44% 30.23 in 10.0 mi Calm Calm - N/A   Unknown
4:55 PM 77.0 °F 53.6 °F 44% 30.22 in 10.0 mi Calm Calm - N/A   Unknown
5:35 PM 73.4 °F 55.4 °F 53% 30.21 in 10.0 mi Calm Calm - N/A   Unknown
5:55 PM 73.4 °F 55.4 °F 53% 30.21 in 10.0 mi Calm Calm - N/A   Unknown
6:15 PM 71.6 °F 57.2 °F 60% 30.20 in 10.0 mi Calm Calm - N/A   Unknown
6:35 PM 69.8 °F 59.0 °F 68% 30.21 in 10.0 mi Calm Calm - N/A   Unknown
6:55 PM 69.8 °F 59.0 °F 68% 30.21 in 10.0 mi Calm Calm - N/A   Unknown
7:15 PM 68.0 °F 59.0 °F 73% 30.21 in 10.0 mi Calm Calm - N/A   Unknown
7:35 PM 66.2 °F 59.0 °F 78% 30.21 in 10.0 mi Calm Calm - N/A   Unknown
8:15 PM 62.6 °F 62.6 °F 100% 30.22 in 10.0 mi ESE 3.5 mph - N/A   Unknown
8:35 PM 64.4 °F 59.0 °F 83% 30.22 in 10.0 mi SE 3.5 mph - N/A   Unknown
8:55 PM 62.6 °F 59.0 °F 88% 30.22 in 10.0 mi Calm Calm - N/A   Unknown
9:15 PM 62.6 °F 60.8 °F 94% 30.23 in 10.0 mi Calm Calm - N/A   Unknown
9:35 PM 62.6 °F 60.8 °F 94% 30.24 in 10.0 mi South 3.5 mph - N/A   Unknown
9:55 PM 60.8 °F 60.8 °F 100% 30.24 in 10.0 mi Calm Calm - N/A   Unknown
10:15 PM 60.8 °F 60.8 °F 100% 30.24 in 10.0 mi SE 3.5 mph - N/A   Unknown
10:35 PM 60.8 °F 60.8 °F 100% 30.24 in 10.0 mi ESE 3.5 mph - N/A   Unknown
10:55 PM 60.8 °F 60.8 °F 100% 30.23 in 10.0 mi East 3.5 mph - N/A   Unknown
11:15 PM 62.6 °F 59.0 °F 88% 30.23 in 10.0 mi SE 3.5 mph - N/A   Unknown
11:35 PM 60.8 °F 60.8 °F 100% 30.23 in 10.0 mi East 4.6 mph - N/A   Unknown
11:55 PM 60.8 °F 59.0 °F 94% 30.23 in 10.0 mi SE 3.5 mph - N/A   Unknown